createdAt,value
2022-08-21T00:00:18.470Z,100003.22
2022-08-21T00:02:52.621Z,100001.56
2022-08-21T00:05:20.389Z,99998.16
2022-08-21T00:07:47.829Z,100002.81
2022-08-21T00:10:15.021Z,99993.31
2022-08-21T00:12:43.902Z,99992.47
2022-08-21T00:15:13.737Z,99992.66
2022-08-21T00:17:41.658Z,99993.59
2022-08-21T00:20:11.160Z,99990.31
2022-08-21T00:22:38.683Z,99987.34
2022-08-21T00:25:07.626Z,99983.53
2022-08-21T00:27:35.029Z,99985.03
2022-08-21T00:30:04.134Z,99989.56
2022-08-21T00:32:31.217Z,99984.28
2022-08-21T00:34:58.319Z,99992.63
2022-08-21T00:37:25.827Z,99975.28
2022-08-21T00:39:52.888Z,99991.34
2022-08-21T00:42:21.388Z,99990.59
2022-08-21T00:44:51.182Z,99988.19
2022-08-21T00:47:19.666Z,99994.94
2022-08-21T00:49:46.912Z,99982.91
2022-08-21T00:52:20.135Z,99989.25
2022-08-21T00:54:48.607Z,99994.53
2022-08-21T00:57:20.707Z,99990.94
2022-08-21T00:59:52.978Z,99970.22
2022-08-21T01:02:21.570Z,99981.25
2022-08-21T01:04:49.419Z,99978.47
2022-08-21T01:07:18.261Z,99979.31
2022-08-21T01:09:50.463Z,99977.00
2022-08-21T01:12:18.824Z,99993.47
2022-08-21T01:14:46.456Z,99985.66
2022-08-21T01:17:16.823Z,99985.84
2022-08-21T01:19:44.709Z,100001.31
2022-08-21T01:22:12.175Z,100002.16
2022-08-21T01:24:39.415Z,99997.72
2022-08-21T01:27:06.621Z,99985.78
2022-08-21T01:29:59.431Z,100001.09
2022-08-21T01:32:27.198Z,99983.97
2022-08-21T01:34:54.588Z,99994.84
2022-08-21T01:37:23.506Z,99993.19
2022-08-21T01:39:50.944Z,99989.78
2022-08-21T01:42:18.304Z,99987.06
2022-08-21T01:44:45.569Z,99979.97
2022-08-21T01:47:15.351Z,99970.25
2022-08-21T01:49:45.782Z,99969.41
2022-08-21T01:52:13.224Z,99957.34
2022-08-21T01:54:41.030Z,99964.34
2022-08-21T01:57:09.024Z,99947.97
2022-08-21T01:59:36.864Z,99943.63
2022-08-21T02:02:05.142Z,99940.97
2022-08-21T02:04:33.713Z,99938.13
2022-08-21T02:07:02.398Z,99940.75
2022-08-21T02:09:29.704Z,99941.94
2022-08-21T02:11:57.984Z,99952.28
2022-08-21T02:14:32.017Z,99937.50
2022-08-21T02:17:09.199Z,99943.41
2022-08-21T02:19:40.132Z,99935.47
2022-08-21T02:22:11.826Z,99938.34
2022-08-21T02:24:54.049Z,99938.56
2022-08-21T02:27:26.609Z,99938.75
2022-08-21T02:29:57.708Z,99928.63
2022-08-21T02:32:25.611Z,99929.47
2022-08-21T02:34:53.460Z,99932.53
2022-08-21T02:37:20.750Z,99930.75
2022-08-21T02:39:48.095Z,99921.22
2022-08-21T02:42:15.401Z,99916.25
2022-08-21T02:44:42.633Z,99909.72
2022-08-21T02:47:09.667Z,99922.72
2022-08-21T02:49:36.950Z,99922.38
2022-08-21T02:52:06.469Z,99916.56
2022-08-21T02:54:33.623Z,99920.34
2022-08-21T02:57:00.710Z,99925.63
2022-08-21T02:59:27.866Z,99920.56
2022-08-21T03:01:55.346Z,99919.28
2022-08-21T03:04:23.232Z,99912.91
2022-08-21T03:06:50.392Z,99931.91
2022-08-21T03:09:17.710Z,99926.50
2022-08-21T03:11:45.078Z,99930.19
2022-08-21T03:14:12.180Z,99930.66
2022-08-21T03:16:39.338Z,99930.88
2022-08-21T03:19:06.499Z,99940.06
2022-08-21T03:21:34.355Z,99936.88
2022-08-21T03:24:04.282Z,99940.66
2022-08-21T03:26:32.266Z,99942.66
2022-08-21T03:28:59.873Z,99946.34
2022-08-21T03:31:32.009Z,99944.44
2022-08-21T03:33:59.914Z,99938.31
2022-08-21T03:36:27.299Z,99949.53
2022-08-21T03:38:54.642Z,99944.97
2022-08-21T03:41:22.872Z,99942.47
2022-08-21T03:43:50.019Z,99945.75
2022-08-21T03:46:17.294Z,99938.03
2022-08-21T03:48:44.381Z,99941.16
2022-08-21T03:51:11.419Z,99958.56
2022-08-21T03:53:38.711Z,99959.69
2022-08-21T03:56:06.626Z,99956.34
2022-08-21T03:58:33.991Z,99958.78
2022-08-21T04:01:03.833Z,99956.97
2022-08-21T04:03:30.900Z,99955.38
2022-08-21T04:05:58.119Z,99969.72
2022-08-21T04:08:25.271Z,99967.38
2022-08-21T04:10:56.901Z,99965.75
2022-08-21T04:13:24.163Z,99964.56
2022-08-21T04:15:51.698Z,99979.34
2022-08-21T04:18:19.436Z,99984.63
2022-08-21T04:20:50.183Z,99979.34
2022-08-21T04:23:23.572Z,99979.53
2022-08-21T04:25:52.390Z,99980.47
2022-08-21T04:28:19.465Z,99979.69
2022-08-21T04:30:46.989Z,99986.50
2022-08-21T04:33:14.854Z,99995.34
2022-08-21T04:35:43.249Z,99986.56
2022-08-21T04:38:10.459Z,99992.81
2022-08-21T04:40:37.983Z,99995.50
2022-08-21T04:43:08.859Z,99991.13
2022-08-21T04:45:45.572Z,99987.81
2022-08-21T04:48:14.555Z,99993.06
2022-08-21T04:50:48.940Z,99978.63
2022-08-21T04:53:37.500Z,99989.72
2022-08-21T04:56:09.730Z,99991.97
2022-08-21T04:58:39.992Z,99983.88
2022-08-21T05:01:12.784Z,100007.97
2022-08-21T05:03:42.277Z,100011.63
2022-08-21T05:06:13.180Z,100007.28
2022-08-21T05:08:41.343Z,99986.31
2022-08-21T05:11:08.600Z,100022.06
2022-08-21T05:13:36.541Z,100022.06
2022-08-21T05:16:04.205Z,100027.72
2022-08-21T05:18:31.315Z,100035.53
2022-08-21T05:20:58.458Z,100039.00
2022-08-21T05:23:26.182Z,100035.22
2022-08-21T05:25:54.899Z,100045.69
2022-08-21T05:28:22.011Z,100029.25
2022-08-21T05:30:49.186Z,100030.16
2022-08-21T05:33:16.998Z,100042.94
2022-08-21T05:35:44.392Z,100041.06
2022-08-21T05:38:16.796Z,100036.00
2022-08-21T05:40:46.830Z,100039.78
2022-08-21T05:43:14.240Z,100031.31
2022-08-21T05:45:43.676Z,100035.03
2022-08-21T05:48:23.662Z,100037.09
2022-08-21T05:50:52.862Z,100033.72
2022-08-21T05:53:22.754Z,100030.31
2022-08-21T05:55:50.943Z,100024.31
2022-08-21T05:58:23.930Z,100032.00
2022-08-21T06:00:52.545Z,100033.88
2022-08-21T06:03:27.984Z,100030.31
2022-08-21T06:05:56.883Z,100023.53
2022-08-21T06:08:25.415Z,100025.06
2022-08-21T06:10:53.992Z,100014.41
2022-08-21T06:13:23.049Z,100008.50
2022-08-21T06:15:51.272Z,100004.00
2022-08-21T06:18:18.548Z,99986.84
2022-08-21T06:20:45.747Z,99991.94
2022-08-21T06:23:12.895Z,99988.72
2022-08-21T06:25:40.012Z,99996.28
2022-08-21T06:28:11.372Z,99998.91
2022-08-21T06:30:39.858Z,99999.75
2022-08-21T06:33:08.940Z,99981.78
2022-08-21T06:35:36.663Z,99988.47
2022-08-21T06:38:07.581Z,99974.25
2022-08-21T06:40:35.591Z,99961.84
2022-08-21T06:43:12.603Z,99944.53
2022-08-21T06:45:42.734Z,99939.25
2022-08-21T06:48:10.173Z,99969.28
2022-08-21T06:50:37.908Z,99980.50
2022-08-21T06:53:13.623Z,99986.84
2022-08-21T06:55:47.552Z,99985.91
2022-08-21T06:58:15.527Z,99998.13
2022-08-21T07:00:46.288Z,99995.63
2022-08-21T07:03:29.209Z,99996.47
2022-08-21T07:05:57.967Z,100007.19
2022-08-21T07:08:27.087Z,99998.53
2022-08-21T07:10:56.116Z,100006.44
2022-08-21T07:13:23.309Z,100003.22
2022-08-21T07:15:50.583Z,100000.97
2022-08-21T07:18:18.253Z,100011.69
2022-08-21T07:20:46.700Z,100012.63
2022-08-21T07:23:24.109Z,100008.13
2022-08-21T07:25:51.663Z,100002.84
2022-08-21T07:28:19.077Z,100010.84
2022-08-21T07:30:47.240Z,100005.75
2022-08-21T07:33:14.378Z,100006.78
2022-08-21T07:35:42.104Z,100011.03
2022-08-21T07:38:09.281Z,100006.06
2022-08-21T07:40:36.663Z,100003.41
2022-08-21T07:43:04.100Z,100017.31
2022-08-21T07:45:31.356Z,100001.81
2022-08-21T07:47:58.542Z,100020.91
2022-08-21T07:50:26.765Z,100018.09
2022-08-21T07:52:54.122Z,100019.22
2022-08-21T07:55:22.945Z,100012.06
2022-08-21T07:57:50.358Z,100020.91
2022-08-21T08:00:23.039Z,100032.19
2022-08-21T08:02:52.363Z,100023.81
2022-08-21T08:05:23.143Z,99997.84
2022-08-21T08:07:50.744Z,100019.03
2022-08-21T08:10:18.862Z,100022.41
2022-08-21T08:12:47.063Z,100032.78
2022-08-21T08:15:19.221Z,100029.38
2022-08-21T08:17:46.935Z,100028.63
2022-08-21T08:20:16.586Z,100033.13
2022-08-21T08:22:44.048Z,100034.84
2022-08-21T08:25:28.457Z,100033.13
2022-08-21T08:28:16.323Z,100039.34
2022-08-21T08:30:47.347Z,100041.97
2022-08-21T08:33:16.127Z,100038.38
2022-08-21T08:35:47.543Z,100036.13
2022-08-21T08:38:21.394Z,100037.47
2022-08-21T08:41:16.113Z,100034.44
2022-08-21T08:43:53.365Z,100041.97
2022-08-21T08:46:44.863Z,100048.56
2022-08-21T08:49:21.620Z,100045.00
2022-08-21T08:51:56.009Z,100047.44
2022-08-21T08:54:34.703Z,100041.25
2022-08-21T08:57:04.383Z,100039.34
2022-08-21T08:59:51.868Z,100049.00
2022-08-21T09:02:22.364Z,100042.31
2022-08-21T09:04:51.754Z,100045.59
2022-08-21T09:07:43.585Z,100044.66
2022-08-21T09:10:11.632Z,100053.69
2022-08-21T09:13:20.386Z,100050.31
2022-08-21T09:16:25.305Z,100055.59
2022-08-21T09:18:55.648Z,100053.88
2022-08-21T09:21:22.765Z,100059.34
2022-08-21T09:24:11.720Z,100062.22
2022-08-21T09:26:54.103Z,100058.34
2022-08-21T09:29:26.103Z,100055.44
2022-08-21T09:31:53.866Z,100050.91
2022-08-21T09:34:30.463Z,100057.06
2022-08-21T09:36:58.677Z,100052.25
2022-08-21T09:39:30.946Z,100029.53
2022-08-21T09:41:59.425Z,100052.88
2022-08-21T09:44:32.983Z,100054.94
2022-08-21T09:47:00.439Z,100051.84
2022-08-21T09:49:30.245Z,100058.53
2022-08-21T09:51:59.852Z,100058.22
2022-08-21T09:54:32.439Z,100055.53
2022-08-21T09:57:39.562Z,100057.97
2022-08-21T10:00:25.684Z,100057.06
2022-08-21T10:02:52.956Z,100059.94
2022-08-21T10:05:26.574Z,100069.66
2022-08-21T10:07:53.829Z,100067.00
2022-08-21T10:10:24.254Z,100064.53
2022-08-21T10:13:06.714Z,100069.28
2022-08-21T10:15:56.824Z,100080.56
2022-08-21T10:18:29.741Z,100079.81
2022-08-21T10:21:29.202Z,100087.13
2022-08-21T10:24:30.874Z,100093.50
2022-08-21T10:27:14.578Z,100090.88
2022-08-21T10:29:41.861Z,100092.78
2022-08-21T10:32:38.907Z,100092.78
2022-08-21T10:35:20.828Z,100088.41
2022-08-21T10:38:23.510Z,100084.28
2022-08-21T10:40:59.024Z,100094.63
2022-08-21T10:43:51.598Z,100074.41
2022-08-21T10:46:43.911Z,100095.75
2022-08-21T10:49:13.872Z,100087.84
2022-08-21T10:51:56.473Z,100091.63
2022-08-21T10:54:42.893Z,100097.97
2022-08-21T10:57:31.972Z,100098.09
2022-08-21T11:00:15.425Z,100103.63
2022-08-21T11:03:01.230Z,100107.00
2022-08-21T11:05:47.554Z,100112.19
2022-08-21T11:08:43.541Z,100101.16
2022-08-21T11:11:28.118Z,100110.00
2022-08-21T11:14:34.833Z,100092.31
2022-08-21T11:17:14.407Z,100094.94
2022-08-21T11:19:51.548Z,100097.75
2022-08-21T11:22:18.652Z,100093.44
2022-08-21T11:24:53.704Z,100090.06
2022-08-21T11:27:35.676Z,100086.75
2022-08-21T11:30:03.208Z,100088.53
2022-08-21T11:32:39.387Z,100086.09
2022-08-21T11:35:24.786Z,100082.88
2022-08-21T11:37:55.021Z,100077.09
2022-08-21T11:40:31.306Z,100078.13
2022-08-21T11:43:18.172Z,100062.34
2022-08-21T11:45:51.735Z,100055.41
2022-08-21T11:48:40.278Z,100052.31
2022-08-21T11:51:14.821Z,100054.38
2022-08-21T11:54:07.466Z,100050.19
2022-08-21T11:56:34.657Z,100059.81
2022-08-21T11:59:08.117Z,100061.69
2022-08-21T12:01:41.813Z,100068.63
2022-08-21T12:04:35.887Z,100066.75
2022-08-21T12:07:16.315Z,100070.50
2022-08-21T12:09:55.784Z,100068.06
2022-08-21T12:12:39.055Z,100070.84
2022-08-21T12:15:15.784Z,100070.69
2022-08-21T12:18:04.143Z,100075.94
2022-08-21T12:20:31.481Z,100075.59
2022-08-21T12:23:13.696Z,100071.34
2022-08-21T12:25:45.251Z,100075.59
2022-08-21T12:28:16.951Z,100072.84
2022-08-21T12:30:47.191Z,100072.72
2022-08-21T12:33:20.002Z,100079.47
2022-08-21T12:35:50.827Z,100063.34
2022-08-21T12:38:29.629Z,100081.72
2022-08-21T12:41:02.034Z,100088.00
2022-08-21T12:43:33.037Z,100087.13
2022-08-21T12:46:02.028Z,100099.19
2022-08-21T12:48:45.241Z,100088.47
2022-08-21T12:51:13.935Z,100095.09
2022-08-21T12:53:51.663Z,100094.53
2022-08-21T12:56:21.352Z,100088.09
2022-08-21T12:59:06.265Z,100088.94
2022-08-21T13:01:41.445Z,100085.56
2022-08-21T13:04:14.272Z,100103.22
2022-08-21T13:06:46.103Z,100091.75
2022-08-21T13:09:18.005Z,100091.47
2022-08-21T13:11:48.425Z,100089.59
2022-08-21T13:14:34.924Z,100097.44
2022-08-21T13:17:08.059Z,100097.06
2022-08-21T13:19:35.769Z,100095.84
2022-08-21T13:22:33.050Z,100099.91
2022-08-21T13:24:51.693Z,100092.38
2022-08-21T13:27:24.814Z,100089.94
2022-08-21T13:30:04.343Z,100091.97
2022-08-21T13:32:34.417Z,100098.94
2022-08-21T13:35:10.564Z,100097.75
2022-08-21T13:37:41.307Z,100105.25
2022-08-21T13:40:16.186Z,100109.19
2022-08-21T13:42:46.275Z,100123.28
2022-08-21T13:45:22.624Z,100117.09
2022-08-21T13:47:50.459Z,100117.16
2022-08-21T13:50:21.702Z,100114.47
2022-08-21T13:53:02.113Z,100119.72
2022-08-21T13:55:39.642Z,100119.91
2022-08-21T13:58:07.778Z,100136.53
2022-08-21T14:00:47.868Z,100120.06
2022-08-21T14:03:39.787Z,100132.28
2022-08-21T14:06:18.984Z,100127.22
2022-08-21T14:09:02.071Z,100129.66
2022-08-21T14:11:35.424Z,100123.44
2022-08-21T14:14:06.602Z,100123.97
2022-08-21T14:16:53.833Z,100124.13
2022-08-21T14:19:27.983Z,100132.94
2022-08-21T14:21:55.953Z,100140.94
2022-08-21T14:24:23.081Z,100131.44
2022-08-21T14:27:17.929Z,100143.81
2022-08-21T14:29:45.158Z,100145.69
2022-08-21T14:32:25.028Z,100147.47
2022-08-21T14:34:53.035Z,100152.06
2022-08-21T14:37:25.125Z,100131.09
2022-08-21T14:39:52.529Z,100155.72
2022-08-21T14:42:20.221Z,100153.16
2022-08-21T14:44:47.578Z,100160.13
2022-08-21T14:47:14.747Z,100147.88
2022-08-21T14:49:41.923Z,100153.16
2022-08-21T14:52:09.162Z,100142.13
2022-08-21T14:54:36.316Z,100147.28
2022-08-21T14:57:09.796Z,100156.13
2022-08-21T14:59:38.443Z,100155.63
2022-08-21T15:02:06.973Z,100143.63
2022-08-21T15:04:37.162Z,100119.09
2022-08-21T15:07:04.385Z,100153.41
2022-08-21T15:09:31.643Z,100156.50
2022-08-21T15:12:01.636Z,100161.59
2022-08-21T15:14:32.095Z,100164.41
2022-08-21T15:16:59.500Z,100159.41
2022-08-21T15:19:27.224Z,100155.00
2022-08-21T15:21:54.826Z,100161.78
2022-08-21T15:24:21.918Z,100162.53
2022-08-21T15:26:49.543Z,100166.72
2022-08-21T15:29:19.034Z,100152.81
2022-08-21T15:32:00.732Z,100159.59
2022-08-21T15:34:30.063Z,100159.41
2022-08-21T15:36:58.744Z,100162.97
2022-08-21T15:39:31.267Z,100160.47
2022-08-21T15:42:02.045Z,100161.28
2022-08-21T15:44:42.599Z,100159.41
2022-08-21T15:47:15.674Z,100166.38
2022-08-21T15:49:46.369Z,100161.13
2022-08-21T15:52:16.144Z,100161.13
2022-08-21T15:54:43.535Z,100162.03
2022-08-21T15:57:13.351Z,100158.56
2022-08-21T15:59:43.464Z,100166.38
2022-08-21T16:02:15.527Z,100167.28
2022-08-21T16:04:42.909Z,100172.50
2022-08-21T16:07:11.015Z,100170.09
2022-08-21T16:09:38.384Z,100147.19
2022-08-21T16:12:07.024Z,100180.63
2022-08-21T16:14:37.443Z,100181.56
2022-08-21T16:17:08.864Z,100176.31
2022-08-21T16:19:37.463Z,100170.59
2022-08-21T16:22:05.103Z,100177.72
2022-08-21T16:24:32.703Z,100177.88
2022-08-21T16:27:02.691Z,100184.81
2022-08-21T16:29:37.184Z,100186.94
2022-08-21T16:32:06.318Z,100186.00
2022-08-21T16:34:34.344Z,100186.88
2022-08-21T16:37:01.679Z,100190.41
2022-08-21T16:39:29.104Z,100184.25
2022-08-21T16:41:56.363Z,100160.38
2022-08-21T16:44:23.613Z,100187.03
2022-08-21T16:46:51.014Z,100185.50
2022-08-21T16:49:18.287Z,100192.44
2022-08-21T16:51:45.536Z,100194.47
2022-08-21T16:54:14.157Z,100199.72
2022-08-21T16:56:45.702Z,100201.72
2022-08-21T16:59:14.833Z,100205.47
2022-08-21T17:01:46.093Z,100214.28
2022-08-21T17:04:13.784Z,100210.91
2022-08-21T17:06:41.190Z,100224.69
2022-08-21T17:09:08.520Z,100222.25
2022-08-21T17:11:40.251Z,100229.19
2022-08-21T17:14:11.048Z,100222.38
2022-08-21T17:16:40.615Z,100236.84
2022-08-21T17:19:08.868Z,100236.84
2022-08-21T17:21:36.222Z,100240.56
2022-08-21T17:24:03.740Z,100230.31
2022-08-21T17:26:31.107Z,100239.13
2022-08-21T17:28:58.918Z,100245.56
2022-08-21T17:31:26.243Z,100248.41
2022-08-21T17:33:54.846Z,100255.50
2022-08-21T17:36:26.971Z,100250.34
2022-08-21T17:38:54.659Z,100250.41
2022-08-21T17:41:22.745Z,100255.66
2022-08-21T17:43:51.779Z,100257.53
2022-08-21T17:46:28.379Z,100247.16
2022-08-21T17:48:57.287Z,100250.88
2022-08-21T17:51:25.038Z,100249.25
2022-08-21T17:53:52.343Z,100245.94
2022-08-21T17:56:21.062Z,100249.63
2022-08-21T17:58:52.141Z,100244.22
2022-08-21T18:01:20.559Z,100251.19
2022-08-21T18:03:48.960Z,100239.13
2022-08-21T18:06:18.217Z,100250.56
2022-08-21T18:08:46.264Z,100254.09
2022-08-21T18:11:23.220Z,100256.72
2022-08-21T18:13:53.029Z,100248.09
2022-08-21T18:16:20.509Z,100249.78
2022-08-21T18:18:49.321Z,100256.88
2022-08-21T18:21:16.853Z,100244.84
2022-08-21T18:23:45.115Z,100253.41
2022-08-21T18:26:16.101Z,100256.88
2022-08-21T18:28:44.594Z,100259.44
2022-08-21T18:31:12.867Z,100261.97
2022-08-21T18:33:43.696Z,100262.13
2022-08-21T18:36:26.832Z,100264.84
2022-08-21T18:38:54.893Z,100269.25
2022-08-21T18:41:22.833Z,100272.78
2022-08-21T18:43:50.222Z,100272.09
2022-08-21T18:46:17.740Z,100279.19
2022-08-21T18:48:45.050Z,100269.69
2022-08-21T18:51:12.562Z,100268.84
2022-08-21T18:53:39.863Z,100272.31
2022-08-21T18:56:15.541Z,100280.19
2022-08-21T18:58:58.663Z,100281.03
2022-08-21T19:01:26.425Z,100270.00
2022-08-21T19:03:53.609Z,100278.41
2022-08-21T19:06:20.775Z,100276.72
2022-08-21T19:08:47.912Z,100271.84
2022-08-21T19:11:16.600Z,100282.19
2022-08-21T19:13:53.905Z,100279.66
2022-08-21T19:16:21.960Z,100275.53
2022-08-21T19:18:49.479Z,100272.03
2022-08-21T19:21:16.689Z,100269.41
2022-08-21T19:23:52.674Z,100277.22
2022-08-21T19:26:23.179Z,100277.38
2022-08-21T19:28:54.742Z,100273.81
2022-08-21T19:31:29.732Z,100273.97
2022-08-21T19:34:12.290Z,100263.78
2022-08-21T19:36:43.922Z,100267.19
2022-08-21T19:39:12.660Z,100262.94
2022-08-21T19:41:45.586Z,100257.75
2022-08-21T19:44:18.071Z,100269.03
2022-08-21T19:49:35.599Z,100265.75
2022-08-21T19:52:11.865Z,100270.88
2022-08-21T19:54:41.100Z,100265.47
2022-08-21T19:57:10.988Z,100248.56
2022-08-21T19:59:39.521Z,100271.00
2022-08-21T20:02:08.047Z,100273.63
2022-08-21T20:04:35.333Z,100277.94
2022-08-21T20:07:02.649Z,100257.09
2022-08-21T20:09:29.790Z,100266.59
2022-08-21T20:11:58.945Z,100271.72
2022-08-21T20:14:31.860Z,100260.50
2022-08-21T20:17:08.384Z,100259.56
2022-08-21T20:19:39.103Z,100266.56
2022-08-21T20:22:07.199Z,100258.81
2022-08-21T20:24:34.582Z,100264.06
2022-08-21T20:29:51.633Z,100265.09
2022-08-21T20:32:18.979Z,100264.31
2022-08-21T20:34:46.156Z,100264.59
2022-08-21T20:37:35.659Z,100271.84
2022-08-21T20:40:11.829Z,100256.53
2022-08-21T20:42:41.552Z,100268.22
2022-08-21T20:45:12.245Z,100271.13
2022-08-21T20:47:40.717Z,100264.31
2022-08-21T20:50:13.918Z,100268.00
2022-08-21T20:52:42.050Z,100269.28
2022-08-21T20:55:15.625Z,100273.78
2022-08-21T20:58:15.347Z,100275.50
2022-08-21T21:00:46.140Z,100274.84
2022-08-21T21:03:16.918Z,100282.84
2022-08-21T21:05:53.497Z,100279.31
2022-08-21T21:08:36.895Z,100278.50
2022-08-21T21:11:19.412Z,100275.88
2022-08-21T21:14:00.951Z,100277.63
2022-08-21T21:16:38.683Z,100281.00
2022-08-21T21:19:37.022Z,100282.63
2022-08-21T21:22:11.220Z,100275.75
2022-08-21T21:25:03.042Z,100275.88
2022-08-21T21:28:12.846Z,100286.25
2022-08-21T21:33:33.639Z,100287.97
2022-08-21T21:36:26.729Z,100289.66
2022-08-21T21:39:36.329Z,100246.97
2022-08-21T21:42:50.900Z,100286.50
2022-08-21T21:45:29.428Z,100283.09
2022-08-21T21:48:22.624Z,100280.28
2022-08-21T21:51:00.754Z,100282.84
2022-08-21T21:53:37.510Z,100291.44
2022-08-21T21:56:35.950Z,100290.38
2022-08-21T21:59:43.499Z,100291.38
2022-08-21T22:02:17.919Z,100286.13
2022-08-21T22:05:32.563Z,100284.28
2022-08-21T22:08:21.472Z,100286.13
2022-08-21T22:14:10.506Z,100287.81
2022-08-21T22:16:38.468Z,100285.16
2022-08-21T22:19:29.458Z,100277.34
2022-08-21T22:22:14.545Z,100280.59
2022-08-21T22:24:48.143Z,100289.13
2022-08-21T22:27:27.760Z,100292.50
2022-08-21T22:30:00.371Z,100276.91
2022-08-21T22:32:50.283Z,100279.38
2022-08-21T22:35:24.263Z,100282.00
2022-08-21T22:38:00.090Z,100271.53
2022-08-21T22:40:35.053Z,100268.78
2022-08-21T22:43:08.418Z,100256.81
2022-08-21T22:46:05.777Z,100269.41
2022-08-21T22:48:54.316Z,100267.56
2022-08-21T22:51:41.003Z,100273.66
2022-08-21T22:54:21.711Z,100272.81
2022-08-21T22:57:03.172Z,100264.16
2022-08-21T22:59:37.283Z,100266.66
2022-08-21T23:02:22.545Z,100269.28
2022-08-21T23:04:51.548Z,100264.94
2022-08-21T23:10:27.138Z,100258.84
2022-08-21T23:13:12.423Z,100260.50
2022-08-21T23:16:15.805Z,100262.19
2022-08-21T23:19:03.000Z,100269.28
2022-08-21T23:21:51.032Z,100259.78
2022-08-21T23:24:50.399Z,100257.06
2022-08-21T23:27:38.391Z,100255.53
2022-08-21T23:30:49.058Z,100262.31
2022-08-21T23:33:40.757Z,100267.56
2022-08-21T23:36:35.439Z,100270.28
2022-08-21T23:39:08.470Z,100266.88
2022-08-21T23:41:54.223Z,100273.75
2022-08-21T23:44:29.662Z,100271.13
2022-08-21T23:47:21.072Z,100266.03
2022-08-21T23:49:53.903Z,100272.16
2022-08-21T23:52:49.499Z,100261.03
2022-08-21T23:55:16.675Z,100268.91
2022-08-21T23:58:04.584Z,100262.75
